createdAt,value
2022-11-21T00:01:30.007Z,5.13
2022-11-21T00:03:56.403Z,4.77
2022-11-21T00:06:23.088Z,4.17
2022-11-21T00:08:49.586Z,3.77
2022-11-21T00:11:16.170Z,4.50
2022-11-21T00:13:43.139Z,4.07
2022-11-21T00:16:12.868Z,3.50
2022-11-21T00:18:39.753Z,3.07
2022-11-21T00:21:09.435Z,3.17
2022-11-21T00:23:35.612Z,3.20
2022-11-21T00:26:10.291Z,3.03
2022-11-21T00:28:37.066Z,3.03
2022-11-21T00:31:05.515Z,3.00
2022-11-21T00:33:34.199Z,3.30
2022-11-21T00:36:09.388Z,3.00
2022-11-21T00:38:36.588Z,3.10
2022-11-21T00:41:03.411Z,2.70
2022-11-21T00:43:29.564Z,3.23
2022-11-21T00:45:55.848Z,2.87
2022-11-21T00:48:22.029Z,3.23
2022-11-21T00:50:49.180Z,3.10
2022-11-21T00:53:15.363Z,3.30
2022-11-21T00:55:42.345Z,3.30
2022-11-21T00:58:08.582Z,3.27
2022-11-21T01:00:34.834Z,3.33
2022-11-21T01:03:00.986Z,3.00
2022-11-21T01:05:27.129Z,3.67
2022-11-21T01:07:53.317Z,3.20
2022-11-21T01:10:19.513Z,3.20
2022-11-21T01:12:45.783Z,3.40
2022-11-21T01:15:11.918Z,3.27
2022-11-21T01:17:38.183Z,2.90
2022-11-21T01:20:06.249Z,3.33
2022-11-21T01:22:32.591Z,3.00
2022-11-21T01:24:58.745Z,3.80
2022-11-21T01:27:24.874Z,3.50
2022-11-21T01:29:51.803Z,3.50
2022-11-21T01:32:18.105Z,3.50
2022-11-21T01:34:44.249Z,4.00
2022-11-21T01:37:10.752Z,5.90
2022-11-21T01:39:36.974Z,6.57
2022-11-21T01:42:03.666Z,7.30
2022-11-21T01:44:52.878Z,8.77
2022-11-21T01:47:20.143Z,8.70
2022-11-21T01:49:47.611Z,8.90
2022-11-21T01:52:30.561Z,9.23
2022-11-21T01:55:08.854Z,9.57
2022-11-21T01:57:47.418Z,9.10
2022-11-21T02:00:24.114Z,8.10
2022-11-21T02:03:00.406Z,8.50
2022-11-21T02:05:32.390Z,9.00
2022-11-21T02:08:09.949Z,8.50
2022-11-21T02:10:42.215Z,8.63
2022-11-21T02:13:08.390Z,7.87
2022-11-21T02:15:34.518Z,8.30
2022-11-21T02:18:00.662Z,8.50
2022-11-21T02:20:28.784Z,8.50
2022-11-21T02:23:31.271Z,8.40
2022-11-21T02:25:58.249Z,8.80
2022-11-21T02:28:24.731Z,9.70
2022-11-21T02:30:50.961Z,9.30
2022-11-21T02:33:17.253Z,10.63
2022-11-21T02:35:43.711Z,10.23
2022-11-21T02:38:21.328Z,10.40
2022-11-21T02:41:08.906Z,10.83
2022-11-21T02:43:50.340Z,10.00
2022-11-21T02:46:16.482Z,11.83
2022-11-21T02:48:43.474Z,11.67
2022-11-21T02:51:09.797Z,12.37
2022-11-21T02:53:35.949Z,12.63
2022-11-21T02:56:02.139Z,12.43
2022-11-21T02:58:28.394Z,12.47
2022-11-21T03:00:54.667Z,12.40
2022-11-21T03:03:21.302Z,12.20
2022-11-21T03:05:47.876Z,12.40
2022-11-21T03:08:14.066Z,12.77
2022-11-21T03:10:40.249Z,12.47
2022-11-21T03:13:06.621Z,12.93
2022-11-21T03:15:34.253Z,13.20
2022-11-21T03:18:02.162Z,14.10
2022-11-21T03:20:33.899Z,13.57
2022-11-21T03:23:00.151Z,12.30
2022-11-21T03:25:26.371Z,14.63
2022-11-21T03:27:54.166Z,12.57
2022-11-21T03:30:22.338Z,12.03
2022-11-21T03:32:48.573Z,11.70
2022-11-21T03:35:15.595Z,13.60
2022-11-21T03:37:41.977Z,13.30
2022-11-21T03:40:09.325Z,12.60
2022-11-21T03:42:35.572Z,11.73
2022-11-21T03:45:01.745Z,12.17
2022-11-21T03:47:27.890Z,13.40
2022-11-21T03:49:54.077Z,11.70
2022-11-21T03:52:20.912Z,11.83
2022-11-21T03:54:47.038Z,10.97
2022-11-21T03:57:13.179Z,12.33
2022-11-21T03:59:39.367Z,11.57
2022-11-21T04:02:05.538Z,11.73
2022-11-21T04:04:31.697Z,11.90
2022-11-21T04:06:57.879Z,12.57
2022-11-21T04:09:24.076Z,11.87
2022-11-21T04:11:50.246Z,13.20
2022-11-21T04:14:16.438Z,12.23
2022-11-21T04:16:42.571Z,14.10
2022-11-21T04:19:08.734Z,13.57
2022-11-21T04:21:34.885Z,13.90
2022-11-21T04:24:01.036Z,13.50
2022-11-21T04:26:27.148Z,12.77
2022-11-21T04:28:53.301Z,12.07
2022-11-21T04:31:19.442Z,12.80
2022-11-21T04:33:45.593Z,12.87
2022-11-21T04:36:11.735Z,13.00
2022-11-21T04:38:37.903Z,12.60
2022-11-21T04:41:04.201Z,11.77
2022-11-21T04:43:30.404Z,12.90
2022-11-21T04:45:56.569Z,11.80
2022-11-21T04:48:23.923Z,12.57
2022-11-21T04:50:50.077Z,12.43
2022-11-21T04:53:16.227Z,11.07
2022-11-21T04:55:42.376Z,12.07
2022-11-21T04:58:08.594Z,12.07
2022-11-21T05:00:35.477Z,11.83
2022-11-21T05:03:07.076Z,11.77
2022-11-21T05:05:33.436Z,12.80
2022-11-21T05:07:59.885Z,12.40
2022-11-21T05:10:26.318Z,13.10
2022-11-21T05:13:18.458Z,12.23
2022-11-21T05:15:45.431Z,11.63
2022-11-21T05:18:11.869Z,12.63
2022-11-21T05:20:38.044Z,11.03
2022-11-21T05:23:04.261Z,12.07
2022-11-21T05:25:30.393Z,12.03
2022-11-21T05:27:56.683Z,12.37
2022-11-21T05:30:22.958Z,13.53
2022-11-21T05:32:49.083Z,12.43
2022-11-21T05:35:15.238Z,13.27
2022-11-21T05:37:41.380Z,13.13
2022-11-21T05:40:08.152Z,15.10
2022-11-21T05:42:57.150Z,14.37
2022-11-21T05:45:23.295Z,14.10
2022-11-21T05:47:49.610Z,13.47
2022-11-21T05:50:16.233Z,14.70
2022-11-21T05:52:42.457Z,16.37
2022-11-21T05:55:08.732Z,14.67
2022-11-21T05:57:34.890Z,15.70
2022-11-21T06:00:01.172Z,16.23
2022-11-21T06:02:46.004Z,12.90
2022-11-21T06:05:12.161Z,15.33
2022-11-21T06:07:38.338Z,15.93
2022-11-21T06:10:04.923Z,16.13
2022-11-21T06:12:31.241Z,17.10
2022-11-21T06:14:57.465Z,17.67
2022-11-21T06:17:23.659Z,16.13
2022-11-21T06:19:49.813Z,15.33
2022-11-21T06:22:16.000Z,16.63
2022-11-21T06:24:42.384Z,15.83
2022-11-21T06:27:08.526Z,17.60
2022-11-21T06:29:34.852Z,16.97
2022-11-21T06:32:01.201Z,15.90
2022-11-21T06:34:27.676Z,14.07
2022-11-21T06:36:54.055Z,16.40
2022-11-21T06:39:20.230Z,16.60
2022-11-21T06:41:50.199Z,17.40
2022-11-21T06:44:19.486Z,16.30
2022-11-21T06:46:50.682Z,15.20
2022-11-21T06:49:17.920Z,16.80
2022-11-21T06:51:44.073Z,17.47
2022-11-21T06:54:13.843Z,14.27
2022-11-21T06:56:42.984Z,14.47
2022-11-21T06:59:09.166Z,15.67
2022-11-21T07:01:35.400Z,13.70
2022-11-21T07:04:01.606Z,17.40
2022-11-21T07:06:27.767Z,16.30
2022-11-21T07:09:17.603Z,14.53
2022-11-21T07:11:40.667Z,13.53
2022-11-21T07:14:09.284Z,15.30
2022-11-21T07:16:36.485Z,15.13
2022-11-21T07:19:02.754Z,15.37
2022-11-21T07:21:28.991Z,16.67
2022-11-21T07:23:55.171Z,15.80
2022-11-21T07:26:21.313Z,15.50
2022-11-21T07:28:47.477Z,15.10
2022-11-21T07:31:14.429Z,16.83
2022-11-21T07:33:42.573Z,16.97
2022-11-21T07:36:08.711Z,16.60
2022-11-21T07:38:34.900Z,14.67
2022-11-21T07:41:01.051Z,17.33
2022-11-21T07:43:27.215Z,16.90
2022-11-21T07:45:53.478Z,14.03
2022-11-21T07:48:19.679Z,15.60
2022-11-21T07:50:45.860Z,15.67
2022-11-21T07:53:12.451Z,13.97
2022-11-21T07:55:40.848Z,9.60
2022-11-21T07:58:11.530Z,10.53
2022-11-21T08:00:41.944Z,10.70
2022-11-21T08:03:08.166Z,11.23
2022-11-21T08:05:42.224Z,10.40
2022-11-21T08:08:11.321Z,10.63
2022-11-21T08:10:43.062Z,13.77
2022-11-21T08:13:10.498Z,13.43
2022-11-21T08:15:37.305Z,13.20
2022-11-21T08:18:21.776Z,13.53
2022-11-21T08:20:48.126Z,10.33
2022-11-21T08:23:14.648Z,12.30
2022-11-21T08:25:42.424Z,13.47
2022-11-21T08:28:10.941Z,10.63
2022-11-21T08:30:38.467Z,14.03
2022-11-21T08:33:05.712Z,13.67
2022-11-21T08:35:34.518Z,14.03
2022-11-21T08:38:01.587Z,14.87
2022-11-21T08:40:30.668Z,17.43
2022-11-21T08:43:05.341Z,16.23
2022-11-21T08:45:33.615Z,16.03
2022-11-21T08:47:59.933Z,17.43
2022-11-21T08:50:27.392Z,15.90
2022-11-21T08:53:00.495Z,17.20
2022-11-21T08:55:27.183Z,16.67
2022-11-21T08:57:53.318Z,14.50
2022-11-21T09:00:19.752Z,13.87
2022-11-21T09:02:46.087Z,15.37
2022-11-21T09:05:12.278Z,15.57
2022-11-21T09:07:40.452Z,15.83
2022-11-21T09:10:07.505Z,15.83
2022-11-21T09:12:33.656Z,17.13
2022-11-21T09:15:18.395Z,15.60
2022-11-21T09:18:02.515Z,16.53
2022-11-21T09:20:30.069Z,13.93
2022-11-21T09:22:56.270Z,15.27
2022-11-21T09:25:22.459Z,15.40
2022-11-21T09:27:48.603Z,15.77
2022-11-21T09:30:15.711Z,17.20
2022-11-21T09:32:42.159Z,15.17
2022-11-21T09:35:08.631Z,15.53
2022-11-21T09:37:38.301Z,14.67
2022-11-21T09:40:05.412Z,16.33
2022-11-21T09:43:24.060Z,13.90
2022-11-21T09:46:02.192Z,11.80
2022-11-21T09:48:38.902Z,12.33
2022-11-21T09:51:13.142Z,10.90
2022-11-21T09:54:04.430Z,10.03
2022-11-21T09:56:38.270Z,8.20
2022-11-21T09:59:35.524Z,7.43
2022-11-21T10:02:11.601Z,5.60
2022-11-21T10:04:37.871Z,5.10
2022-11-21T10:07:19.939Z,5.53
2022-11-21T10:10:41.076Z,5.53
2022-11-21T10:13:28.969Z,5.07
2022-11-21T10:16:12.235Z,4.50
2022-11-21T10:19:17.564Z,4.27
2022-11-21T10:22:07.809Z,5.43
2022-11-21T10:24:47.752Z,6.30
2022-11-21T10:27:29.544Z,6.20
2022-11-21T10:30:03.787Z,5.17
2022-11-21T10:32:40.904Z,6.53
2022-11-21T10:35:22.466Z,6.70
2022-11-21T10:37:57.231Z,5.83
2022-11-21T10:40:39.489Z,5.90
2022-11-21T10:43:52.396Z,5.73
2022-11-21T10:46:18.611Z,5.30
2022-11-21T10:49:02.647Z,6.30
2022-11-21T10:51:59.461Z,6.43
2022-11-21T10:54:31.988Z,4.87
2022-11-21T10:57:22.142Z,6.30
2022-11-21T11:00:13.524Z,4.70
2022-11-21T11:02:42.743Z,4.17
2022-11-21T11:05:21.385Z,5.00
2022-11-21T11:08:03.780Z,4.50
2022-11-21T11:10:37.794Z,4.53
2022-11-21T11:13:46.213Z,4.47
2022-11-21T11:16:18.060Z,4.10
2022-11-21T11:19:07.895Z,5.00
2022-11-21T11:21:40.169Z,5.57
2022-11-21T11:24:25.166Z,7.80
2022-11-21T11:27:02.013Z,5.90
2022-11-21T11:29:34.125Z,6.70
2022-11-21T11:32:17.870Z,5.77
2022-11-21T11:35:03.770Z,5.50
2022-11-21T11:37:41.873Z,6.00
2022-11-21T11:40:35.058Z,5.97
2022-11-21T11:43:34.743Z,7.13
2022-11-21T11:46:34.897Z,5.50
2022-11-21T11:49:20.313Z,5.87
2022-11-21T11:52:03.267Z,6.03
2022-11-21T11:54:43.609Z,6.03
2022-11-21T11:57:10.518Z,5.20
2022-11-21T12:00:07.347Z,5.30
2022-11-21T12:03:03.803Z,5.37
2022-11-21T12:05:31.782Z,4.60
2022-11-21T12:11:55.290Z,4.60
2022-11-21T12:15:09.146Z,5.10
2022-11-21T12:18:15.316Z,4.23
2022-11-21T12:21:02.132Z,4.03
2022-11-21T12:23:36.988Z,3.93
2022-11-21T12:26:27.686Z,4.03
2022-11-21T12:29:25.008Z,4.17
2022-11-21T12:32:08.797Z,3.63
2022-11-21T12:35:21.123Z,5.03
2022-11-21T12:38:11.741Z,4.70
2022-11-21T12:40:45.067Z,4.03
2022-11-21T12:43:41.980Z,4.20
2022-11-21T12:46:38.146Z,4.10
2022-11-21T12:49:54.800Z,4.13
2022-11-21T12:52:59.988Z,4.83
2022-11-21T12:55:39.922Z,4.30
2022-11-21T12:58:40.838Z,4.40
2022-11-21T13:02:03.874Z,4.80
2022-11-21T13:04:38.020Z,4.27
2022-11-21T13:07:06.004Z,4.30
2022-11-21T13:09:42.724Z,4.20
2022-11-21T13:12:44.802Z,4.03
2022-11-21T13:15:40.424Z,4.33
2022-11-21T13:18:49.292Z,4.20
2022-11-21T13:21:47.341Z,3.93
2022-11-21T13:24:44.532Z,3.60
2022-11-21T13:27:40.384Z,3.70
2022-11-21T13:30:06.424Z,4.50
2022-11-21T13:32:47.397Z,4.00
2022-11-21T13:35:19.579Z,4.53
2022-11-21T13:37:48.774Z,4.53
2022-11-21T13:40:29.534Z,4.03
2022-11-21T13:43:35.221Z,9.07
2022-11-21T13:46:01.898Z,4.20
2022-11-21T13:48:29.734Z,4.30
2022-11-21T13:51:47.084Z,4.30
2022-11-21T13:54:45.205Z,5.67
2022-11-21T13:57:41.343Z,4.20
2022-11-21T14:00:28.526Z,5.77
2022-11-21T14:03:32.183Z,3.97
2022-11-21T14:06:33.872Z,3.50
2022-11-21T14:09:36.321Z,3.60
2022-11-21T14:12:21.391Z,3.37
2022-11-21T14:15:12.557Z,3.40
2022-11-21T14:17:56.967Z,3.30
2022-11-21T14:20:51.484Z,3.43
2022-11-21T14:23:21.395Z,3.50
2022-11-21T14:25:52.299Z,2.70
2022-11-21T14:28:31.141Z,3.00
2022-11-21T14:31:02.377Z,3.07
2022-11-21T14:33:31.391Z,3.33
2022-11-21T14:36:08.116Z,3.20
2022-11-21T14:39:21.139Z,3.10
2022-11-21T14:41:39.107Z,2.80
2022-11-21T14:44:15.268Z,2.47
2022-11-21T14:46:43.910Z,3.13
2022-11-21T14:49:18.085Z,2.90
2022-11-21T14:52:07.689Z,3.10
2022-11-21T14:55:06.382Z,2.50
2022-11-21T14:57:38.281Z,2.80
2022-11-21T15:00:07.070Z,2.90
2022-11-21T15:02:34.231Z,2.90
2022-11-21T15:05:04.333Z,3.10
2022-11-21T15:07:44.964Z,3.40
2022-11-21T15:10:29.831Z,2.67
2022-11-21T15:13:08.780Z,3.33
2022-11-21T15:15:50.236Z,3.23
2022-11-21T15:18:27.993Z,3.37
2022-11-21T15:21:02.095Z,3.77
2022-11-21T15:23:34.900Z,3.00
2022-11-21T15:26:01.925Z,3.70
2022-11-21T15:28:30.470Z,4.00
2022-11-21T15:31:16.246Z,3.80
2022-11-21T15:37:17.377Z,4.30
2022-11-21T15:39:48.327Z,3.53
2022-11-21T15:42:49.418Z,4.83
2022-11-21T15:45:20.031Z,6.47
2022-11-21T15:47:48.235Z,4.50
2022-11-21T15:50:16.063Z,4.33
2022-11-21T15:52:48.245Z,8.60
2022-11-21T15:55:28.421Z,7.83
2022-11-21T15:57:13.498Z,3.67
2022-11-21T15:57:54.575Z,8.10
2022-11-21T16:00:20.770Z,10.97
2022-11-21T16:02:48.078Z,7.73
2022-11-21T16:05:15.457Z,10.47
2022-11-21T16:07:41.942Z,13.73
2022-11-21T16:10:16.560Z,15.10
2022-11-21T16:12:47.130Z,14.33
2022-11-21T16:15:13.651Z,11.83
2022-11-21T16:17:40.852Z,7.87
2022-11-21T16:20:07.589Z,8.53
2022-11-21T16:22:33.869Z,5.90
2022-11-21T16:25:00.235Z,11.87
2022-11-21T16:27:27.313Z,9.43
2022-11-21T16:29:53.570Z,8.23
2022-11-21T16:32:19.710Z,9.93
2022-11-21T16:34:47.085Z,10.93
2022-11-21T16:37:13.646Z,7.50
2022-11-21T16:39:41.000Z,6.10
2022-11-21T16:42:10.463Z,6.43
2022-11-21T16:44:36.630Z,6.70
2022-11-21T16:47:08.073Z,7.30
2022-11-21T16:49:35.593Z,11.27
2022-11-21T16:52:01.916Z,9.33
2022-11-21T16:54:28.139Z,8.00
2022-11-21T16:56:54.286Z,9.80
2022-11-21T16:59:20.448Z,14.73
2022-11-21T17:01:47.360Z,17.10
2022-11-21T17:04:17.205Z,15.80
2022-11-21T17:06:44.819Z,12.30
2022-11-21T17:09:11.363Z,7.17
2022-11-21T17:11:37.499Z,6.03
2022-11-21T17:14:05.893Z,5.43
2022-11-21T17:16:33.942Z,5.07
2022-11-21T17:19:01.915Z,6.17
2022-11-21T17:21:32.625Z,5.87
2022-11-21T17:23:58.960Z,5.70
2022-11-21T17:26:28.627Z,6.60
2022-11-21T17:28:58.481Z,4.80
2022-11-21T17:31:25.838Z,8.73
2022-11-21T17:33:54.526Z,8.50
2022-11-21T17:36:26.382Z,8.27
2022-11-21T17:38:53.684Z,7.23
2022-11-21T17:41:22.358Z,7.07
2022-11-21T17:43:52.216Z,10.50
2022-11-21T17:46:19.332Z,6.90
2022-11-21T17:48:54.614Z,10.00
2022-11-21T17:51:29.578Z,8.23
2022-11-21T17:53:56.346Z,11.80
2022-11-21T17:56:26.006Z,10.27
2022-11-21T17:58:52.294Z,10.40
2022-11-21T18:01:19.964Z,10.93
2022-11-21T18:03:52.640Z,12.13
2022-11-21T18:06:18.769Z,11.50
2022-11-21T18:08:48.333Z,8.93
2022-11-21T18:11:18.489Z,9.93
2022-11-21T18:13:45.122Z,8.53
2022-11-21T18:16:19.010Z,9.87
2022-11-21T18:18:45.913Z,8.07
2022-11-21T18:21:15.754Z,7.00
2022-11-21T18:23:43.288Z,7.90
2022-11-21T18:26:21.343Z,6.93
2022-11-21T18:29:01.654Z,5.17
2022-11-21T18:31:36.893Z,4.93
2022-11-21T18:34:05.815Z,4.60
2022-11-21T18:36:32.765Z,5.30
2022-11-21T18:39:05.919Z,5.07
2022-11-21T18:41:37.003Z,4.70
2022-11-21T18:44:05.833Z,4.90
2022-11-21T18:46:35.110Z,5.03
2022-11-21T18:49:05.335Z,4.73
2022-11-21T18:51:33.636Z,4.93
2022-11-21T18:54:07.194Z,4.77
2022-11-21T18:56:35.136Z,4.50
2022-11-21T18:59:03.171Z,5.70
2022-11-21T19:01:30.926Z,4.00
2022-11-21T19:03:57.722Z,5.23
2022-11-21T19:06:25.881Z,5.47
2022-11-21T19:08:54.411Z,6.33
2022-11-21T19:11:23.578Z,5.60
2022-11-21T19:13:50.640Z,5.27
2022-11-21T19:16:19.962Z,5.67
2022-11-21T19:19:05.293Z,5.37
2022-11-21T19:21:38.191Z,6.97
2022-11-21T19:24:12.541Z,5.43
2022-11-21T19:26:39.013Z,5.70
2022-11-21T19:29:05.257Z,6.07
2022-11-21T19:31:31.989Z,5.90
2022-11-21T19:33:59.155Z,7.07
2022-11-21T19:36:25.530Z,7.57
2022-11-21T19:38:51.948Z,8.83
2022-11-21T19:41:25.988Z,13.10
2022-11-21T19:43:56.476Z,9.17
2022-11-21T19:46:32.186Z,10.47
2022-11-21T19:48:59.660Z,12.40
2022-11-21T19:51:38.466Z,11.50
2022-11-21T19:54:06.520Z,9.93
2022-11-21T19:56:33.546Z,8.87
2022-11-21T19:59:00.229Z,8.20
2022-11-21T20:01:31.953Z,7.40
2022-11-21T20:04:01.963Z,10.50
2022-11-21T20:06:35.122Z,9.43
2022-11-21T20:09:11.095Z,14.77
2022-11-21T20:11:40.228Z,8.73
2022-11-21T20:14:07.190Z,6.83
2022-11-21T20:16:42.885Z,6.67
2022-11-21T20:19:14.062Z,17.53
2022-11-21T20:21:41.969Z,17.33
2022-11-21T20:24:08.593Z,12.87
2022-11-21T20:26:36.177Z,12.03
2022-11-21T20:29:03.767Z,13.43
2022-11-21T20:31:33.300Z,12.80
2022-11-21T20:34:03.713Z,11.37
2022-11-21T20:36:33.092Z,12.93
2022-11-21T20:39:07.704Z,10.07
2022-11-21T20:41:36.422Z,6.87
2022-11-21T20:45:20.366Z,9.00
2022-11-21T20:46:57.838Z,9.47
2022-11-21T20:49:23.971Z,12.00
2022-11-21T20:54:37.045Z,6.00
2022-11-21T20:57:09.192Z,6.63
2022-11-21T20:59:39.379Z,6.80
2022-11-21T21:02:05.579Z,6.13
2022-11-21T21:04:31.741Z,6.50
2022-11-21T21:06:57.879Z,6.57
2022-11-21T21:09:24.064Z,6.10
2022-11-21T21:11:52.859Z,6.10
2022-11-21T21:14:21.368Z,5.77
2022-11-21T21:16:48.315Z,5.97
2022-11-21T21:19:14.542Z,6.30
2022-11-21T21:21:40.839Z,6.30
2022-11-21T21:24:10.152Z,5.37
2022-11-21T21:26:43.058Z,5.90
2022-11-21T21:29:17.626Z,6.10
2022-11-21T21:31:50.560Z,6.47
2022-11-21T21:34:20.095Z,5.47
2022-11-21T21:36:46.477Z,6.13
2022-11-21T21:39:13.038Z,9.50
2022-11-21T21:41:41.036Z,5.70
2022-11-21T21:44:07.197Z,7.77
2022-11-21T21:46:33.411Z,6.10
2022-11-21T21:48:59.670Z,12.33
2022-11-21T21:51:29.017Z,7.77
2022-11-21T21:53:57.669Z,8.83
2022-11-21T21:56:27.047Z,6.70
2022-11-21T21:58:53.460Z,5.30
2022-11-21T22:01:22.207Z,7.30
2022-11-21T22:03:52.536Z,8.53
2022-11-21T22:06:19.080Z,9.40
2022-11-21T22:08:47.875Z,5.67
2022-11-21T22:11:20.628Z,9.30
2022-11-21T22:13:54.811Z,5.57
2022-11-21T22:16:21.715Z,4.77
2022-11-21T22:18:48.193Z,6.50
2022-11-21T22:21:19.067Z,6.13
2022-11-21T22:24:17.238Z,6.23
2022-11-21T22:26:32.388Z,6.03
2022-11-21T22:28:58.593Z,11.07
2022-11-21T22:31:25.092Z,12.13
2022-11-21T22:33:51.501Z,6.23
2022-11-21T22:36:18.636Z,4.90
2022-11-21T22:38:45.151Z,5.90
2022-11-21T22:41:21.333Z,4.10
2022-11-21T22:43:53.888Z,4.50
2022-11-21T22:46:21.443Z,4.77
2022-11-21T22:48:48.616Z,4.20
2022-11-21T22:51:22.838Z,4.50
2022-11-21T22:53:50.291Z,4.50
2022-11-21T22:56:19.645Z,5.73
2022-11-21T22:58:46.961Z,5.03
2022-11-21T23:01:17.061Z,7.57
2022-11-21T23:03:44.171Z,7.10
2022-11-21T23:06:20.517Z,4.60
2022-11-21T23:08:50.348Z,4.77
2022-11-21T23:11:21.851Z,6.93
2022-11-21T23:13:49.151Z,5.90
2022-11-21T23:16:16.371Z,4.80
2022-11-21T23:18:43.516Z,5.33
2022-11-21T23:21:12.180Z,5.73
2022-11-21T23:23:38.898Z,5.17
2022-11-21T23:26:09.105Z,5.13
2022-11-21T23:28:35.631Z,4.57
2022-11-21T23:31:01.868Z,4.60
2022-11-21T23:33:28.473Z,4.57
2022-11-21T23:35:55.109Z,4.23
2022-11-21T23:38:21.541Z,5.83
2022-11-21T23:40:48.835Z,4.70
2022-11-21T23:43:16.560Z,5.10
2022-11-21T23:45:44.497Z,4.20
2022-11-21T23:48:11.091Z,4.60
2022-11-21T23:50:37.305Z,4.90
2022-11-21T23:53:03.507Z,4.40
2022-11-21T23:55:29.666Z,4.13
2022-11-21T23:57:55.833Z,4.33
